createdAt,value
2022-11-12T00:00:14.645Z,45.13
2022-11-12T00:02:36.437Z,106.40
2022-11-12T00:04:38.222Z,39.13
2022-11-12T00:06:40.559Z,40.95
2022-11-12T00:08:42.398Z,55.65
2022-11-12T00:10:45.056Z,37.35
2022-11-12T00:12:47.290Z,39.35
2022-11-12T00:14:49.086Z,39.95
2022-11-12T00:16:50.935Z,35.72
2022-11-12T00:18:53.155Z,38.17
2022-11-12T00:20:54.918Z,37.15
2022-11-12T00:22:56.703Z,38.08
2022-11-12T00:24:58.920Z,34.05
2022-11-12T00:27:00.730Z,43.25
2022-11-12T00:29:02.690Z,36.20
2022-11-12T00:31:12.146Z,35.45
2022-11-12T00:33:13.978Z,34.33
2022-11-12T00:35:15.789Z,40.10
2022-11-12T00:37:18.832Z,33.78
2022-11-12T00:39:20.574Z,33.72
2022-11-12T00:41:22.339Z,36.47
2022-11-12T00:43:25.126Z,35.83
2022-11-12T00:45:26.888Z,35.55
2022-11-12T00:47:28.695Z,36.92
2022-11-12T00:49:31.022Z,36.35
2022-11-12T00:51:32.811Z,38.63
2022-11-12T00:53:34.603Z,34.45
2022-11-12T00:55:36.849Z,34.22
2022-11-12T00:57:38.897Z,36.73
2022-11-12T00:59:40.846Z,32.55
2022-11-12T01:01:43.224Z,34.67
2022-11-12T01:03:45.423Z,34.13
2022-11-12T01:05:47.385Z,35.43
2022-11-12T01:07:55.620Z,29.07
2022-11-12T01:09:57.881Z,32.80
2022-11-12T01:11:59.656Z,33.67
2022-11-12T01:14:06.455Z,32.40
2022-11-12T01:16:10.823Z,39.08
2022-11-12T01:18:12.854Z,32.05
2022-11-12T01:20:15.062Z,34.17
2022-11-12T01:22:16.937Z,31.23
2022-11-12T01:24:18.702Z,32.85
2022-11-12T01:26:22.845Z,37.50
2022-11-12T01:28:24.973Z,31.38
2022-11-12T01:30:27.013Z,39.63
2022-11-12T01:32:29.213Z,34.35
2022-11-12T01:34:30.985Z,31.40
2022-11-12T01:36:38.677Z,38.50
2022-11-12T01:38:42.922Z,33.85
2022-11-12T01:40:44.685Z,29.77
2022-11-12T01:42:52.697Z,33.92
2022-11-12T01:44:55.057Z,32.72
2022-11-12T01:47:06.539Z,34.67
2022-11-12T01:49:14.567Z,31.27
2022-11-12T01:51:17.104Z,38.28
2022-11-12T01:53:22.123Z,31.33
2022-11-12T01:55:28.401Z,31.58
2022-11-12T01:57:39.262Z,34.40
2022-11-12T01:59:46.548Z,33.67
2022-11-12T02:01:48.610Z,32.63
2022-11-12T02:03:50.868Z,31.20
2022-11-12T02:06:01.263Z,34.60
2022-11-12T02:08:05.818Z,32.05
2022-11-12T02:10:09.185Z,35.35
2022-11-12T02:12:31.267Z,32.20
2022-11-12T02:14:33.462Z,31.92
2022-11-12T02:16:41.318Z,35.45
2022-11-12T02:18:43.118Z,35.58
2022-11-12T02:20:44.940Z,32.90
2022-11-12T02:22:47.100Z,32.13
2022-11-12T02:24:48.864Z,31.70
2022-11-12T02:26:53.535Z,36.92
2022-11-12T02:28:55.803Z,35.63
2022-11-12T02:30:57.619Z,29.15
2022-11-12T02:32:59.844Z,33.47
2022-11-12T02:35:02.009Z,31.58
2022-11-12T02:37:03.802Z,35.97
2022-11-12T02:39:06.244Z,33.90
2022-11-12T02:41:08.422Z,32.88
2022-11-12T02:43:10.236Z,33.13
2022-11-12T02:45:12.146Z,35.60
2022-11-12T02:47:14.311Z,36.15
2022-11-12T02:49:16.262Z,32.40
2022-11-12T02:51:18.095Z,34.70
2022-11-12T02:53:20.428Z,34.50
2022-11-12T02:55:22.251Z,37.85
2022-11-12T02:57:24.458Z,37.25
2022-11-12T02:59:26.632Z,36.60
2022-11-12T03:01:28.648Z,36.42
2022-11-12T03:03:30.465Z,45.40
2022-11-12T03:05:34.271Z,45.70
2022-11-12T03:07:36.107Z,36.95
2022-11-12T03:09:37.881Z,39.15
2022-11-12T03:11:40.311Z,40.78
2022-11-12T03:13:42.451Z,34.50
2022-11-12T03:15:44.606Z,36.85
2022-11-12T03:17:47.091Z,40.58
2022-11-12T03:19:49.048Z,39.30
2022-11-12T03:21:50.852Z,38.60
2022-11-12T03:23:52.984Z,36.08
2022-11-12T03:25:54.808Z,35.65
2022-11-12T03:27:58.673Z,39.63
2022-11-12T03:30:00.910Z,38.58
2022-11-12T03:32:03.052Z,40.63
2022-11-12T03:34:04.904Z,42.67
2022-11-12T03:36:07.747Z,35.10
2022-11-12T03:38:10.038Z,40.10
2022-11-12T03:40:11.907Z,32.70
2022-11-12T03:42:14.037Z,36.42
2022-11-12T03:44:15.946Z,38.65
2022-11-12T03:46:17.746Z,37.25
2022-11-12T03:48:20.213Z,33.80
2022-11-12T03:50:25.796Z,38.83
2022-11-12T03:52:27.695Z,34.33
2022-11-12T03:54:29.837Z,37.15
2022-11-12T03:56:31.660Z,38.13
2022-11-12T03:58:33.488Z,36.33
2022-11-12T04:00:35.646Z,37.28
2022-11-12T04:02:38.134Z,36.80
2022-11-12T04:04:58.353Z,35.85
2022-11-12T04:07:19.527Z,38.65
2022-11-12T04:09:21.352Z,59.67
2022-11-12T04:11:23.383Z,39.05
2022-11-12T04:13:28.311Z,36.67
2022-11-12T04:15:30.074Z,36.55
2022-11-12T04:17:50.423Z,39.70
2022-11-12T04:20:11.223Z,37.85
2022-11-12T04:22:13.076Z,35.22
2022-11-12T04:24:34.900Z,36.58
2022-11-12T04:26:37.019Z,36.28
2022-11-12T04:28:38.849Z,36.65
2022-11-12T04:30:40.629Z,35.53
2022-11-12T04:32:50.327Z,40.13
2022-11-12T04:34:52.845Z,41.28
2022-11-12T04:36:54.720Z,39.35
2022-11-12T04:38:56.826Z,39.50
2022-11-12T04:41:17.287Z,33.35
2022-11-12T04:43:37.583Z,36.15
2022-11-12T04:45:41.684Z,35.95
2022-11-12T04:47:44.164Z,35.40
2022-11-12T04:49:45.970Z,36.03
2022-11-12T04:52:06.125Z,41.07
2022-11-12T04:54:07.916Z,34.92
2022-11-12T04:56:09.783Z,37.88
2022-11-12T04:58:11.987Z,40.80
2022-11-12T05:00:14.230Z,39.83
2022-11-12T05:02:17.220Z,44.30
2022-11-12T05:04:19.485Z,43.72
2022-11-12T05:06:40.114Z,44.55
2022-11-12T05:08:42.029Z,43.40
2022-11-12T05:10:44.606Z,44.65
2022-11-12T05:12:46.456Z,39.30
2022-11-12T05:14:48.354Z,39.63
2022-11-12T05:16:51.380Z,43.28
2022-11-12T05:18:53.209Z,46.80
2022-11-12T05:20:55.135Z,45.35
2022-11-12T05:23:11.735Z,50.10
2022-11-12T05:25:13.556Z,41.78
2022-11-12T05:27:20.967Z,48.63
2022-11-12T05:29:23.158Z,51.00
2022-11-12T05:31:25.100Z,45.22
2022-11-12T05:33:26.898Z,46.47
2022-11-12T05:35:29.087Z,46.75
2022-11-12T05:37:30.869Z,49.95
2022-11-12T05:39:32.782Z,40.35
2022-11-12T05:41:58.053Z,57.65
2022-11-12T05:43:56.864Z,48.35
2022-11-12T05:45:58.693Z,51.50
2022-11-12T05:48:01.045Z,44.80
2022-11-12T05:50:03.441Z,56.63
2022-11-12T05:52:05.532Z,46.55
2022-11-12T05:54:08.161Z,54.65
2022-11-12T05:56:11.243Z,52.17
2022-11-12T05:58:13.143Z,47.63
2022-11-12T06:00:15.903Z,49.85
2022-11-12T06:02:17.930Z,53.60
2022-11-12T06:04:19.839Z,57.50
2022-11-12T06:06:22.042Z,49.22
2022-11-12T06:08:23.959Z,55.88
2022-11-12T06:10:26.001Z,53.72
2022-11-12T06:12:28.291Z,51.63
2022-11-12T06:14:30.063Z,50.42
2022-11-12T06:16:32.262Z,55.03
2022-11-12T06:18:34.646Z,56.55
2022-11-12T06:20:36.553Z,54.60
2022-11-12T06:22:38.608Z,51.53
2022-11-12T06:24:40.742Z,49.92
2022-11-12T06:26:42.524Z,50.33
2022-11-12T06:28:44.993Z,51.08
2022-11-12T06:30:47.250Z,53.88
2022-11-12T06:32:50.194Z,50.28
2022-11-12T06:36:56.009Z,54.30
2022-11-12T06:38:57.873Z,53.20
2022-11-12T06:41:02.544Z,53.47
2022-11-12T06:43:04.834Z,57.38
2022-11-12T06:45:07.447Z,58.60
2022-11-12T06:47:10.408Z,53.65
2022-11-12T06:49:12.710Z,57.50
2022-11-12T06:51:20.197Z,58.65
2022-11-12T06:53:22.078Z,53.70
2022-11-12T06:55:24.223Z,57.90
2022-11-12T06:57:26.137Z,62.17
2022-11-12T06:59:29.506Z,56.65
2022-11-12T07:01:31.807Z,54.78
2022-11-12T07:03:33.776Z,65.73
2022-11-12T07:05:38.052Z,57.30
2022-11-12T07:07:40.864Z,64.38
2022-11-12T07:09:42.658Z,57.05
2022-11-12T07:11:45.054Z,57.72
2022-11-12T07:13:48.070Z,145.05
2022-11-12T07:17:52.186Z,59.53
2022-11-12T07:19:57.184Z,56.30
2022-11-12T07:22:02.739Z,52.05
2022-11-12T07:24:04.735Z,56.40
2022-11-12T07:26:18.843Z,59.38
2022-11-12T07:28:21.467Z,57.17
2022-11-12T07:30:24.039Z,56.90
2022-11-12T07:34:28.030Z,61.90
2022-11-12T07:36:30.002Z,61.65
2022-11-12T07:38:34.587Z,68.03
2022-11-12T07:40:36.411Z,62.05
2022-11-12T07:42:38.528Z,69.00
2022-11-12T07:44:41.014Z,62.13
2022-11-12T07:46:42.910Z,60.72
2022-11-12T07:48:46.329Z,67.70
2022-11-12T07:50:48.510Z,62.90
2022-11-12T07:52:50.729Z,75.03
2022-11-12T07:54:52.626Z,63.07
2022-11-12T07:56:54.981Z,73.95
2022-11-12T07:58:56.858Z,75.20
2022-11-12T08:01:06.978Z,65.57
2022-11-12T08:03:09.138Z,72.70
2022-11-12T08:05:17.573Z,82.13
2022-11-12T08:07:22.210Z,65.75
2022-11-12T08:09:24.454Z,67.88
2022-11-12T08:11:26.668Z,67.30
2022-11-12T08:13:28.514Z,64.60
2022-11-12T08:15:31.668Z,70.47
2022-11-12T08:17:38.586Z,69.57
2022-11-12T08:19:40.446Z,68.57
2022-11-12T08:21:42.579Z,70.88
2022-11-12T08:23:45.024Z,64.10
2022-11-12T08:25:46.852Z,63.28
2022-11-12T08:27:49.231Z,70.90
2022-11-12T08:29:51.008Z,66.95
2022-11-12T08:31:52.785Z,69.22
2022-11-12T08:33:55.065Z,72.93
2022-11-12T08:35:57.052Z,66.60
2022-11-12T08:38:00.434Z,64.75
2022-11-12T08:40:02.875Z,67.50
2022-11-12T08:42:05.043Z,66.37
2022-11-12T08:44:08.630Z,67.53
2022-11-12T08:46:11.184Z,62.97
2022-11-12T08:48:15.317Z,60.25
2022-11-12T08:50:17.106Z,70.78
2022-11-12T08:52:19.401Z,64.57
2022-11-12T08:54:21.879Z,69.90
2022-11-12T08:56:23.698Z,70.70
2022-11-12T08:58:26.766Z,65.40
2022-11-12T09:02:35.170Z,68.15
2022-11-12T09:04:37.326Z,69.78
2022-11-12T09:06:39.215Z,71.80
2022-11-12T09:08:41.109Z,69.47
2022-11-12T09:10:43.633Z,88.72
2022-11-12T09:12:50.247Z,76.60
2022-11-12T09:14:56.115Z,73.22
2022-11-12T09:16:58.404Z,69.40
2022-11-12T09:19:00.147Z,69.68
2022-11-12T09:21:03.583Z,65.97
2022-11-12T09:23:09.242Z,67.93
2022-11-12T09:25:11.000Z,75.82
2022-11-12T09:27:12.857Z,68.57
2022-11-12T09:29:15.202Z,72.30
2022-11-12T09:31:16.956Z,62.92
2022-11-12T09:33:29.435Z,62.47
2022-11-12T09:35:31.819Z,71.45
2022-11-12T09:37:33.662Z,66.10
2022-11-12T09:39:35.492Z,68.00
2022-11-12T09:41:40.806Z,72.35
2022-11-12T09:43:52.417Z,67.85
2022-11-12T09:46:13.916Z,73.20
2022-11-12T09:48:36.800Z,68.43
2022-11-12T09:50:49.687Z,68.93
2022-11-12T09:53:04.350Z,65.75
2022-11-12T09:55:17.427Z,66.20
2022-11-12T09:57:19.282Z,70.28
2022-11-12T09:59:23.668Z,64.45
2022-11-12T10:01:46.783Z,66.47
2022-11-12T10:04:28.555Z,69.50
2022-11-12T10:06:47.078Z,59.08
2022-11-12T10:09:05.294Z,63.97
2022-11-12T10:11:19.383Z,66.70
2022-11-12T10:13:45.373Z,60.90
2022-11-12T10:16:17.437Z,59.58
2022-11-12T10:18:28.425Z,59.92
2022-11-12T10:20:41.856Z,56.53
2022-11-12T10:23:01.982Z,58.15
2022-11-12T10:25:14.956Z,63.03
2022-11-12T10:27:26.207Z,55.80
2022-11-12T10:29:49.433Z,58.45
2022-11-12T10:31:51.187Z,62.55
2022-11-12T10:34:16.089Z,73.83
2022-11-12T10:36:33.644Z,60.00
2022-11-12T10:38:36.954Z,58.70
2022-11-12T10:40:42.770Z,59.63
2022-11-12T10:43:06.875Z,60.67
2022-11-12T10:45:21.815Z,54.85
2022-11-12T10:47:39.022Z,92.30
2022-11-12T10:49:40.832Z,64.60
2022-11-12T10:51:56.839Z,58.97
2022-11-12T10:54:18.892Z,53.15
2022-11-12T10:56:27.406Z,51.15
2022-11-12T10:58:29.735Z,52.92
2022-11-12T11:00:32.895Z,50.53
2022-11-12T11:02:35.018Z,53.05
2022-11-12T11:04:38.112Z,50.00
2022-11-12T11:06:40.375Z,54.20
2022-11-12T11:08:44.356Z,52.92
2022-11-12T11:10:46.147Z,58.65
2022-11-12T11:12:48.309Z,52.88
2022-11-12T11:15:07.603Z,51.33
2022-11-12T11:17:18.418Z,51.63
2022-11-12T11:19:20.903Z,47.50
2022-11-12T11:21:41.955Z,52.55
2022-11-12T11:23:53.887Z,51.72
2022-11-12T11:26:02.930Z,52.08
2022-11-12T11:28:24.956Z,48.60
2022-11-12T11:30:27.386Z,51.85
2022-11-12T11:32:39.267Z,55.50
2022-11-12T11:34:58.102Z,51.45
2022-11-12T11:37:25.839Z,47.15
2022-11-12T11:39:42.591Z,48.50
2022-11-12T11:42:26.263Z,46.70
2022-11-12T11:44:50.893Z,46.85
2022-11-12T11:47:38.635Z,50.97
2022-11-12T11:49:51.223Z,47.53
2022-11-12T11:52:42.632Z,48.30
2022-11-12T11:54:59.382Z,48.35
2022-11-12T11:57:10.166Z,46.22
2022-11-12T11:59:24.366Z,45.42
2022-11-12T12:01:26.295Z,44.22
2022-11-12T12:03:46.434Z,48.55
2022-11-12T12:06:09.869Z,49.10
2022-11-12T12:08:16.496Z,43.33
2022-11-12T12:10:46.259Z,49.95
2022-11-12T12:13:33.334Z,39.42
2022-11-12T12:15:54.525Z,45.13
2022-11-12T12:18:05.270Z,45.22
2022-11-12T12:20:24.216Z,52.17
2022-11-12T12:22:36.172Z,47.92
2022-11-12T12:24:56.201Z,41.17
2022-11-12T12:27:09.223Z,41.20
2022-11-12T12:31:25.810Z,35.83
2022-11-12T12:33:33.300Z,36.25
2022-11-12T12:35:44.906Z,35.22
2022-11-12T12:38:23.365Z,34.00
2022-11-12T12:40:40.794Z,39.72
2022-11-12T12:43:02.664Z,38.22
2022-11-12T12:45:28.683Z,40.05
2022-11-12T12:47:43.307Z,31.63
2022-11-12T12:49:47.827Z,39.15
2022-11-12T12:51:55.442Z,37.10
2022-11-12T12:54:00.099Z,33.90
2022-11-12T12:56:15.337Z,35.65
2022-11-12T12:58:28.241Z,38.50
2022-11-12T13:00:48.678Z,38.00
2022-11-12T13:02:51.528Z,34.20
2022-11-12T13:04:56.524Z,36.00
2022-11-12T13:06:58.775Z,37.65
2022-11-12T13:09:20.741Z,38.28
2022-11-12T13:12:04.500Z,39.40
2022-11-12T13:14:39.149Z,45.10
2022-11-12T13:16:51.150Z,37.00
2022-11-12T13:18:58.101Z,34.72
2022-11-12T13:21:13.946Z,35.83
2022-11-12T13:24:07.494Z,37.60
2022-11-12T13:26:49.202Z,33.35
2022-11-12T13:29:23.238Z,36.65
2022-11-12T13:31:28.834Z,38.65
2022-11-12T13:33:32.714Z,36.42
2022-11-12T13:35:35.801Z,36.85
2022-11-12T13:37:54.473Z,35.47
2022-11-12T13:40:03.814Z,36.17
2022-11-12T13:42:34.139Z,40.38
2022-11-12T13:44:36.456Z,36.50
2022-11-12T13:46:38.554Z,35.75
2022-11-12T13:48:47.140Z,33.20
2022-11-12T13:50:59.502Z,38.15
2022-11-12T13:53:01.373Z,36.40
2022-11-12T13:55:13.099Z,35.03
2022-11-12T13:57:24.068Z,36.70
2022-11-12T13:59:26.491Z,38.97
2022-11-12T14:01:33.708Z,35.67
2022-11-12T14:03:44.124Z,39.08
2022-11-12T14:05:49.625Z,37.30
2022-11-12T14:08:16.731Z,38.13
2022-11-12T14:10:30.804Z,39.85
2022-11-12T14:12:58.208Z,36.85
2022-11-12T14:15:18.618Z,38.85
2022-11-12T14:17:44.170Z,44.78
2022-11-12T14:20:09.383Z,41.90
2022-11-12T14:22:17.478Z,41.53
2022-11-12T14:24:20.647Z,43.28
2022-11-12T14:26:40.598Z,43.47
2022-11-12T14:28:43.343Z,49.60
2022-11-12T14:30:45.617Z,48.05
2022-11-12T14:33:08.135Z,44.30
2022-11-12T14:35:25.204Z,47.28
2022-11-12T14:37:43.337Z,48.88
2022-11-12T14:39:45.688Z,53.30
2022-11-12T14:41:49.320Z,48.38
2022-11-12T14:44:07.733Z,74.78
2022-11-12T14:46:39.543Z,52.72
2022-11-12T14:48:51.695Z,50.30
2022-11-12T14:51:06.120Z,54.40
2022-11-12T14:53:24.794Z,49.53
2022-11-12T14:55:32.296Z,51.63
2022-11-12T14:57:34.776Z,55.17
2022-11-12T14:59:36.825Z,52.20
2022-11-12T15:04:17.880Z,51.70
2022-11-12T15:06:28.918Z,50.15
2022-11-12T15:08:36.426Z,50.00
2022-11-12T15:10:44.493Z,46.03
2022-11-12T15:12:46.307Z,49.53
2022-11-12T15:14:48.371Z,47.15
2022-11-12T15:16:51.547Z,45.47
2022-11-12T15:19:17.500Z,49.47
2022-11-12T15:21:27.872Z,61.40
2022-11-12T15:23:30.492Z,49.95
2022-11-12T15:25:32.784Z,47.55
2022-11-12T15:27:37.959Z,44.83
2022-11-12T15:29:40.185Z,48.28
2022-11-12T15:32:03.493Z,46.67
2022-11-12T15:34:43.603Z,51.13
2022-11-12T15:36:45.860Z,53.40
2022-11-12T15:38:54.548Z,49.10
2022-11-12T15:40:57.884Z,48.05
2022-11-12T15:43:01.859Z,47.97
2022-11-12T15:45:10.687Z,46.63
2022-11-12T15:47:22.710Z,49.35
2022-11-12T15:49:24.892Z,48.50
2022-11-12T15:51:26.835Z,48.95
2022-11-12T15:53:29.063Z,48.33
2022-11-12T15:55:33.007Z,49.75
2022-11-12T15:57:40.911Z,51.92
2022-11-12T15:59:44.261Z,51.58
2022-11-12T16:01:46.591Z,49.03
2022-11-12T16:03:48.455Z,43.90
2022-11-12T16:05:50.343Z,46.50
2022-11-12T16:07:52.510Z,50.65
2022-11-12T16:09:54.537Z,52.83
2022-11-12T16:11:57.565Z,42.22
2022-11-12T16:14:00.178Z,48.65
2022-11-12T16:16:06.495Z,43.70
2022-11-12T16:18:11.879Z,46.97
2022-11-12T16:20:23.265Z,49.13
2022-11-12T16:22:25.381Z,47.25
2022-11-12T16:24:27.516Z,52.65
2022-11-12T16:26:31.322Z,49.47
2022-11-12T16:28:35.024Z,49.88
2022-11-12T16:30:36.812Z,48.03
2022-11-12T16:32:39.069Z,48.90
2022-11-12T16:34:40.852Z,45.38
2022-11-12T16:36:42.929Z,46.53
2022-11-12T16:38:46.261Z,49.25
2022-11-12T16:40:48.379Z,49.08
2022-11-12T16:42:50.651Z,47.10
2022-11-12T16:44:52.757Z,45.67
2022-11-12T16:46:54.574Z,51.92
2022-11-12T16:48:56.893Z,47.67
2022-11-12T16:50:59.548Z,48.38
2022-11-12T16:53:01.380Z,48.72
2022-11-12T16:55:05.046Z,45.90
2022-11-12T16:57:10.837Z,45.95
2022-11-12T16:59:14.408Z,47.47
2022-11-12T17:01:27.573Z,48.28
2022-11-12T17:05:32.086Z,43.67
2022-11-12T17:07:34.407Z,45.92
2022-11-12T17:09:36.600Z,48.13
2022-11-12T17:11:38.669Z,49.67
2022-11-12T17:13:40.587Z,44.20
2022-11-12T17:15:42.742Z,48.90
2022-11-12T17:17:44.537Z,49.05
2022-11-12T17:19:46.475Z,47.03
2022-11-12T17:21:48.830Z,39.75
2022-11-12T17:23:50.904Z,83.07
2022-11-12T17:26:01.560Z,52.83
2022-11-12T17:28:03.754Z,46.45
2022-11-12T17:30:06.200Z,48.53
2022-11-12T17:32:08.052Z,48.83
2022-11-12T17:34:10.415Z,44.78
2022-11-12T17:36:21.106Z,51.93
2022-11-12T17:38:22.954Z,60.30
2022-11-12T17:40:25.080Z,45.13
2022-11-12T17:42:26.849Z,50.08
2022-11-12T17:44:28.607Z,45.28
2022-11-12T17:46:32.785Z,44.33
2022-11-12T17:48:36.388Z,40.83
2022-11-12T17:50:38.425Z,42.10
2022-11-12T17:52:40.572Z,45.85
2022-11-12T17:54:42.437Z,43.00
2022-11-12T17:56:44.829Z,64.80
2022-11-12T17:58:48.681Z,54.88
2022-11-12T18:00:51.834Z,48.15
2022-11-12T18:02:56.131Z,44.70
2022-11-12T18:04:58.348Z,45.63
2022-11-12T18:07:00.289Z,42.17
2022-11-12T18:09:04.964Z,46.80
2022-11-12T18:11:11.834Z,44.13
2022-11-12T18:13:13.702Z,45.15
2022-11-12T18:15:17.012Z,51.63
2022-11-12T18:17:19.450Z,44.40
2022-11-12T18:19:21.637Z,43.65
2022-11-12T18:21:25.190Z,44.70
2022-11-12T18:23:27.636Z,42.30
2022-11-12T18:25:29.710Z,42.25
2022-11-12T18:27:31.851Z,47.47
2022-11-12T18:29:36.011Z,41.42
2022-11-12T18:31:38.148Z,105.07
2022-11-12T18:33:40.149Z,45.92
2022-11-12T18:35:42.693Z,43.10
2022-11-12T18:37:44.967Z,40.85
2022-11-12T18:39:47.380Z,43.22
2022-11-12T18:41:51.391Z,43.60
2022-11-12T18:43:54.542Z,54.53
2022-11-12T18:46:01.057Z,47.20
2022-11-12T18:48:04.523Z,49.28
2022-11-12T18:50:08.771Z,46.28
2022-11-12T18:52:11.034Z,46.72
2022-11-12T18:54:14.023Z,46.13
2022-11-12T18:56:20.879Z,46.08
2022-11-12T18:58:23.329Z,45.60
2022-11-12T19:00:25.815Z,43.30
2022-11-12T19:02:27.998Z,47.13
2022-11-12T19:04:30.277Z,48.38
2022-11-12T19:06:32.623Z,48.05
2022-11-12T19:08:35.198Z,48.15
2022-11-12T19:10:37.215Z,47.63
2022-11-12T19:12:39.805Z,50.13
2022-11-12T19:14:41.841Z,48.27
2022-11-12T19:16:44.868Z,50.45
2022-11-12T19:18:47.309Z,49.70
2022-11-12T19:20:49.192Z,49.17
2022-11-12T19:22:51.129Z,45.00
2022-11-12T19:24:53.266Z,52.60
2022-11-12T19:26:55.509Z,49.47
2022-11-12T19:28:57.341Z,55.60
2022-11-12T19:31:04.098Z,48.22
2022-11-12T19:33:05.849Z,45.33
2022-11-12T19:35:08.184Z,102.72
2022-11-12T19:37:32.429Z,49.55
2022-11-12T19:39:32.722Z,51.65
2022-11-12T19:41:34.687Z,51.97
2022-11-12T19:43:37.545Z,56.30
2022-11-12T19:45:39.424Z,58.83
2022-11-12T19:47:41.205Z,52.53
2022-11-12T19:49:43.375Z,48.33
2022-11-12T19:51:45.355Z,53.78
2022-11-12T19:53:47.452Z,48.85
2022-11-12T19:55:49.586Z,52.78
2022-11-12T19:57:51.624Z,97.15
2022-11-12T19:59:53.411Z,149.30
2022-11-12T20:01:55.546Z,57.90
2022-11-12T20:03:57.407Z,58.55
2022-11-12T20:06:08.019Z,66.03
2022-11-12T20:08:10.150Z,57.20
2022-11-12T20:10:12.047Z,57.63
2022-11-12T20:12:13.866Z,62.90
2022-11-12T20:14:16.154Z,60.25
2022-11-12T20:16:23.917Z,69.13
2022-11-12T20:18:27.646Z,67.25
2022-11-12T20:20:30.103Z,65.00
2022-11-12T20:22:32.511Z,68.30
2022-11-12T20:24:34.583Z,69.88
2022-11-12T20:26:36.930Z,68.68
2022-11-12T20:28:40.828Z,68.68
2022-11-12T20:30:42.680Z,70.47
2022-11-12T20:32:44.862Z,69.30
2022-11-12T20:34:46.638Z,72.68
2022-11-12T20:36:48.577Z,86.50
2022-11-12T20:38:53.048Z,77.63
2022-11-12T20:41:00.447Z,76.65
2022-11-12T20:43:02.338Z,77.97
2022-11-12T20:45:04.993Z,88.70
2022-11-12T20:47:06.897Z,85.32
2022-11-12T20:49:08.866Z,82.95
2022-11-12T20:51:24.664Z,87.28
2022-11-12T20:53:27.343Z,93.43
2022-11-12T20:55:32.442Z,82.65
2022-11-12T20:57:34.588Z,84.75
2022-11-12T20:59:41.162Z,86.03
2022-11-12T21:01:43.006Z,84.63
2022-11-12T21:03:46.436Z,94.82
2022-11-12T21:07:50.068Z,89.63
2022-11-12T21:09:52.167Z,84.38
2022-11-12T21:11:54.174Z,84.60
2022-11-12T21:13:56.027Z,89.75
2022-11-12T21:15:58.139Z,89.82
2022-11-12T21:18:00.054Z,86.38
2022-11-12T21:20:01.841Z,86.32
2022-11-12T21:22:04.008Z,85.80
2022-11-12T21:24:06.428Z,88.13
2022-11-12T21:26:16.602Z,86.63
2022-11-12T21:28:18.745Z,82.03
2022-11-12T21:30:20.673Z,89.35
2022-11-12T21:32:22.473Z,89.35
2022-11-12T21:34:24.610Z,96.78
2022-11-12T21:36:28.193Z,94.97
2022-11-12T21:38:30.387Z,94.78
2022-11-12T21:40:32.846Z,89.78
2022-11-12T21:42:34.638Z,95.93
2022-11-12T21:44:36.392Z,99.40
2022-11-12T21:46:40.390Z,99.65
2022-11-12T21:48:44.578Z,98.07
2022-11-12T21:50:46.623Z,92.88
2022-11-12T21:52:49.121Z,95.65
2022-11-12T21:54:50.993Z,96.45
2022-11-12T21:56:52.757Z,93.38
2022-11-12T21:58:59.570Z,99.17
2022-11-12T22:01:20.147Z,97.53
2022-11-12T22:03:22.105Z,96.82
2022-11-12T22:05:24.653Z,97.25
2022-11-12T22:07:26.479Z,100.55
2022-11-12T22:09:28.350Z,99.28
2022-11-12T22:11:31.069Z,101.85
2022-11-12T22:13:33.988Z,94.60
2022-11-12T22:15:35.915Z,98.78
2022-11-12T22:17:38.388Z,107.25
2022-11-12T22:19:40.178Z,100.15
2022-11-12T22:21:42.867Z,96.68
2022-11-12T22:25:48.446Z,101.03
2022-11-12T22:27:50.260Z,93.85
2022-11-12T22:29:52.416Z,95.83
2022-11-12T22:31:54.226Z,99.97
2022-11-12T22:33:58.382Z,100.15
2022-11-12T22:36:05.122Z,101.47
2022-11-12T22:38:06.970Z,96.65
2022-11-12T22:40:13.351Z,98.28
2022-11-12T22:42:15.888Z,97.35
2022-11-12T22:44:19.248Z,99.22
2022-11-12T22:46:24.047Z,103.53
2022-11-12T22:48:26.549Z,99.43
2022-11-12T22:50:28.809Z,98.25
2022-11-12T22:52:30.629Z,108.70
2022-11-12T22:54:32.783Z,104.10
2022-11-12T22:56:34.678Z,106.43
2022-11-12T22:58:37.875Z,103.65
2022-11-12T23:00:40.167Z,99.85
2022-11-12T23:02:46.348Z,114.00
2022-11-12T23:04:49.392Z,104.03
2022-11-12T23:06:51.619Z,102.93
2022-11-12T23:08:54.692Z,101.95
2022-11-12T23:10:56.660Z,105.80
2022-11-12T23:12:58.780Z,109.85
2022-11-12T23:15:00.766Z,102.50
2022-11-12T23:17:02.762Z,113.15
2022-11-12T23:19:04.893Z,101.65
2022-11-12T23:21:09.986Z,110.15
2022-11-12T23:23:11.769Z,101.38
2022-11-12T23:25:13.911Z,111.83
2022-11-12T23:27:16.051Z,99.45
2022-11-12T23:29:17.906Z,99.22
2022-11-12T23:31:26.010Z,99.85
2022-11-12T23:33:27.879Z,100.80
2022-11-12T23:35:30.474Z,101.73
2022-11-12T23:37:32.876Z,100.30
2022-11-12T23:39:34.719Z,99.43
2022-11-12T23:41:36.747Z,98.43
2022-11-12T23:43:39.067Z,99.53
2022-11-12T23:45:41.959Z,97.43
2022-11-12T23:49:45.999Z,92.60
2022-11-12T23:51:47.866Z,90.47
2022-11-12T23:53:50.159Z,85.50
2022-11-12T23:55:52.670Z,84.22
2022-11-12T23:57:54.452Z,80.45
2022-11-12T23:59:56.256Z,92.78
